createdAt,value
2022-08-12T00:02:05.649Z,8.77
2022-08-12T00:08:42.494Z,9.13
2022-08-12T00:26:24.558Z,11.68
2022-08-12T00:29:37.143Z,8.25
2022-08-12T00:33:11.872Z,7.97
2022-08-12T00:36:48.913Z,7.65
2022-08-12T00:40:11.678Z,6.15
2022-08-12T00:43:15.938Z,5.70
2022-08-12T00:47:01.685Z,6.32
2022-08-12T00:49:56.039Z,5.93
2022-08-12T00:53:21.134Z,6.55
2022-08-12T00:56:36.821Z,7.15
2022-08-12T00:59:13.124Z,5.90
2022-08-12T01:02:12.628Z,5.97
2022-08-12T01:05:31.782Z,8.75
2022-08-12T01:08:25.556Z,6.60
2022-08-12T01:11:41.335Z,6.07
2022-08-12T01:14:29.182Z,6.65
2022-08-12T01:17:02.739Z,6.15
2022-08-12T01:19:31.663Z,6.20
2022-08-12T01:22:21.611Z,6.15
2022-08-12T01:25:36.432Z,5.68
2022-08-12T01:28:43.370Z,7.60
2022-08-12T01:31:21.122Z,5.32
2022-08-12T01:40:58.414Z,8.05
2022-08-12T01:43:31.346Z,4.90
2022-08-12T01:46:18.734Z,5.80
2022-08-12T01:49:31.883Z,4.90
2022-08-12T01:55:57.428Z,4.65
2022-08-12T02:02:40.894Z,9.48
2022-08-12T02:05:46.767Z,4.93
2022-08-12T02:09:11.411Z,6.53
2022-08-12T02:12:59.908Z,4.57
2022-08-12T02:16:33.964Z,5.00
2022-08-12T02:20:04.377Z,5.28
2022-08-12T02:22:48.322Z,14.88
2022-08-12T02:25:38.014Z,5.38
2022-08-12T02:28:20.009Z,7.43
2022-08-12T02:31:02.930Z,6.40
2022-08-12T02:34:04.402Z,7.80
2022-08-12T02:36:39.860Z,9.55
2022-08-12T02:39:25.813Z,6.65
2022-08-12T02:43:07.788Z,7.18
2022-08-12T02:46:11.845Z,5.38
2022-08-12T02:49:04.093Z,5.13
2022-08-12T02:55:00.356Z,5.47
2022-08-12T02:57:28.693Z,6.97
2022-08-12T02:59:57.928Z,7.65
2022-08-12T03:02:31.307Z,9.15
2022-08-12T03:05:05.378Z,10.60
2022-08-12T03:07:59.509Z,7.18
2022-08-12T03:16:47.977Z,11.05
2022-08-12T03:26:53.704Z,5.95
2022-08-12T03:29:49.873Z,9.43
2022-08-12T03:32:36.833Z,5.82
2022-08-12T03:35:40.754Z,12.57
2022-08-12T03:38:57.499Z,6.80
2022-08-12T03:45:51.491Z,11.18
2022-08-12T03:48:55.119Z,6.32
2022-08-12T03:52:11.750Z,6.75
2022-08-12T03:55:24.670Z,6.03
2022-08-12T04:01:41.125Z,8.52
2022-08-12T04:08:31.315Z,7.18
2022-08-12T04:12:03.971Z,6.85
2022-08-12T04:15:16.291Z,7.35
2022-08-12T04:18:07.486Z,7.97
2022-08-12T04:21:10.787Z,10.48
2022-08-12T04:24:09.614Z,9.68
2022-08-12T04:26:50.763Z,6.10
2022-08-12T04:30:29.514Z,12.80
2022-08-12T04:32:28.654Z,6.78
2022-08-12T04:35:05.443Z,7.55
2022-08-12T04:38:11.510Z,8.27
2022-08-12T04:41:03.604Z,6.63
2022-08-12T04:43:53.901Z,6.65
2022-08-12T04:46:33.597Z,9.15
2022-08-12T04:49:06.272Z,7.88
2022-08-12T04:51:37.092Z,8.30
2022-08-12T04:54:23.289Z,12.30
2022-08-12T04:57:05.231Z,6.68
2022-08-12T04:59:47.713Z,9.27
2022-08-12T05:03:04.712Z,8.07
2022-08-12T05:09:16.254Z,7.65
2022-08-12T05:14:25.503Z,5.78
2022-08-12T05:16:53.813Z,6.10
2022-08-12T05:19:22.823Z,6.35
2022-08-12T05:21:50.643Z,10.70
2022-08-12T05:24:23.899Z,9.00
2022-08-12T05:26:54.773Z,8.45
2022-08-12T05:30:07.824Z,10.10
2022-08-12T05:32:20.682Z,8.13
2022-08-12T05:34:55.288Z,8.43
2022-08-12T05:37:25.377Z,6.63
2022-08-12T05:39:56.237Z,7.68
2022-08-12T05:42:34.286Z,7.55
2022-08-12T05:45:04.679Z,9.38
2022-08-12T05:47:52.779Z,9.18
2022-08-12T05:50:25.782Z,7.03
2022-08-12T05:52:54.597Z,9.80
2022-08-12T05:55:29.370Z,7.30
2022-08-12T05:58:09.510Z,9.50
2022-08-12T06:00:42.571Z,10.02
2022-08-12T06:03:11.236Z,11.02
2022-08-12T06:05:51.854Z,10.25
2022-08-12T06:08:25.563Z,8.35
2022-08-12T06:10:53.939Z,7.40
2022-08-12T06:13:28.823Z,8.20
2022-08-12T06:16:22.835Z,9.75
2022-08-12T06:18:53.684Z,10.40
2022-08-12T06:21:24.540Z,13.27
2022-08-12T06:23:53.419Z,8.55
2022-08-12T06:26:22.672Z,7.75
2022-08-12T06:28:56.399Z,7.47
2022-08-12T06:31:27.337Z,9.60
2022-08-12T06:35:24.246Z,11.13
2022-08-12T06:36:52.048Z,15.63
2022-08-12T06:39:24.405Z,14.70
2022-08-12T06:42:32.197Z,9.35
2022-08-12T06:45:03.057Z,14.50
2022-08-12T06:47:37.624Z,8.55
2022-08-12T06:50:07.305Z,7.32
2022-08-12T06:52:35.488Z,13.85
2022-08-12T06:55:07.390Z,14.77
2022-08-12T06:58:05.340Z,10.95
2022-08-12T07:00:38.225Z,11.63
2022-08-12T07:03:22.946Z,7.85
2022-08-12T07:05:51.227Z,10.70
2022-08-12T07:08:18.954Z,7.40
2022-08-12T07:10:53.993Z,8.73
2022-08-12T07:13:22.247Z,11.50
2022-08-12T07:15:50.434Z,7.85
2022-08-12T07:18:20.137Z,6.40
2022-08-12T07:20:53.293Z,13.23
2022-08-12T07:23:21.328Z,7.35
2022-08-12T07:25:49.010Z,11.40
2022-08-12T07:28:19.411Z,7.18
2022-08-12T07:30:50.995Z,10.60
2022-08-12T07:33:22.438Z,9.25
2022-08-12T07:35:53.033Z,6.47
2022-08-12T07:38:33.789Z,12.50
2022-08-12T07:41:15.803Z,6.82
2022-08-12T07:43:54.972Z,15.70
2022-08-12T07:46:43.441Z,13.90
2022-08-12T07:49:14.524Z,11.23
2022-08-12T07:51:44.380Z,12.73
2022-08-12T07:54:13.704Z,9.43
2022-08-12T07:56:42.721Z,10.20
2022-08-12T07:59:12.620Z,14.18
2022-08-12T08:01:40.934Z,13.95
2022-08-12T08:04:27.797Z,14.07
2022-08-12T08:07:01.125Z,11.38
2022-08-12T08:09:29.596Z,10.50
2022-08-12T08:12:42.375Z,9.63
2022-08-12T08:15:12.574Z,10.10
2022-08-12T08:17:40.635Z,7.07
2022-08-12T08:20:13.799Z,9.13
2022-08-12T08:22:42.732Z,9.85
2022-08-12T08:25:34.958Z,9.82
2022-08-12T08:28:02.438Z,16.98
2022-08-12T08:30:31.369Z,9.70
2022-08-12T08:32:59.435Z,12.32
2022-08-12T08:35:43.175Z,6.95
2022-08-12T08:38:32.651Z,10.80
2022-08-12T08:42:19.375Z,8.85
2022-08-12T08:44:19.637Z,18.88
2022-08-12T08:46:49.749Z,8.45
2022-08-12T08:49:20.089Z,8.88
2022-08-12T08:51:49.855Z,8.20
2022-08-12T08:54:18.844Z,8.00
2022-08-12T08:56:50.702Z,8.65
2022-08-12T08:59:22.486Z,5.35
2022-08-12T09:01:53.480Z,6.78
2022-08-12T09:05:12.244Z,5.63
2022-08-12T09:07:51.991Z,6.60
2022-08-12T09:10:15.674Z,7.15
2022-08-12T09:16:20.807Z,6.90
2022-08-12T09:18:52.637Z,4.25
2022-08-12T09:24:10.498Z,6.88
2022-08-12T09:26:46.587Z,3.75
2022-08-12T09:30:09.952Z,4.03
2022-08-12T09:32:29.340Z,5.82
2022-08-12T09:34:57.696Z,3.35
2022-08-12T09:37:26.879Z,3.13
2022-08-12T09:40:00.672Z,5.85
2022-08-12T09:46:11.176Z,3.15
2022-08-12T09:48:34.934Z,3.20
2022-08-12T09:51:16.598Z,3.80
2022-08-12T09:54:06.822Z,2.80
2022-08-12T09:57:02.924Z,7.88
2022-08-12T10:00:17.507Z,2.05
2022-08-12T10:02:42.010Z,2.25
2022-08-12T10:05:13.819Z,2.13
2022-08-12T10:07:45.760Z,2.65
2022-08-12T10:10:22.773Z,3.33
2022-08-12T10:13:34.556Z,4.65
2022-08-12T10:16:04.661Z,4.25
2022-08-12T10:18:36.097Z,3.78
2022-08-12T10:21:07.519Z,6.40
2022-08-12T10:23:40.432Z,4.38
2022-08-12T10:26:37.425Z,3.47
2022-08-12T10:30:03.155Z,6.75
2022-08-12T10:32:44.814Z,3.35
2022-08-12T10:35:09.828Z,2.95
2022-08-12T10:38:34.154Z,3.35
2022-08-12T10:40:32.283Z,5.93
2022-08-12T10:43:55.581Z,3.20
2022-08-12T10:46:30.686Z,2.97
2022-08-12T10:49:06.975Z,3.65
2022-08-12T10:52:32.762Z,4.10
2022-08-12T10:54:44.929Z,3.25
2022-08-12T10:58:15.462Z,3.50
2022-08-12T11:00:31.854Z,3.60
2022-08-12T11:04:22.341Z,3.35
2022-08-12T11:07:05.076Z,5.30
2022-08-12T11:08:43.203Z,4.40
2022-08-12T11:12:07.600Z,3.22
2022-08-12T11:14:09.891Z,3.42
2022-08-12T11:17:44.244Z,3.03
2022-08-12T11:19:49.866Z,2.37
2022-08-12T11:22:24.169Z,2.40
2022-08-12T11:24:53.842Z,3.10
2022-08-12T11:27:23.262Z,2.85
2022-08-12T11:30:02.351Z,3.35
2022-08-12T11:32:39.318Z,2.85
2022-08-12T11:35:08.777Z,2.97
2022-08-12T11:37:59.109Z,2.72
2022-08-12T11:40:35.247Z,5.88
2022-08-12T11:43:19.689Z,3.25
2022-08-12T11:45:53.263Z,2.60
2022-08-12T11:48:27.389Z,2.13
2022-08-12T11:50:59.005Z,2.90
2022-08-12T11:53:58.317Z,2.72
2022-08-12T11:56:14.725Z,2.72
2022-08-12T12:01:59.002Z,6.07
2022-08-12T12:04:29.161Z,2.42
2022-08-12T12:07:06.630Z,2.85
2022-08-12T12:09:52.250Z,2.50
2022-08-12T12:12:23.439Z,2.80
2022-08-12T12:14:54.735Z,2.97
2022-08-12T12:17:38.427Z,2.90
2022-08-12T12:20:20.448Z,3.65
2022-08-12T12:26:06.851Z,13.20
2022-08-12T12:28:37.010Z,3.85
2022-08-12T12:30:58.144Z,2.70
2022-08-12T12:33:46.165Z,2.92
2022-08-12T12:36:20.349Z,3.38
2022-08-12T12:38:50.719Z,3.80
2022-08-12T12:41:18.866Z,3.30
2022-08-12T12:43:56.338Z,3.42
2022-08-12T12:46:31.438Z,3.17
2022-08-12T12:48:58.863Z,7.10
2022-08-12T12:52:17.255Z,4.68
2022-08-12T12:54:55.773Z,4.47
2022-08-12T12:57:36.167Z,3.00
2022-08-12T13:00:21.698Z,3.53
2022-08-12T13:03:08.604Z,3.00
2022-08-12T13:05:54.156Z,3.78
2022-08-12T13:08:35.896Z,2.85
2022-08-12T13:11:08.561Z,3.75
2022-08-12T13:14:09.845Z,3.65
2022-08-12T13:16:44.077Z,3.10
2022-08-12T13:19:36.701Z,2.80
2022-08-12T13:22:19.055Z,3.10
2022-08-12T13:24:56.768Z,3.67
2022-08-12T13:27:34.522Z,3.45
2022-08-12T13:30:10.986Z,3.65
2022-08-12T13:32:57.080Z,3.22
2022-08-12T13:38:44.082Z,2.72
2022-08-12T13:41:37.164Z,4.60
2022-08-12T13:44:11.584Z,6.55
2022-08-12T13:46:58.083Z,3.75
2022-08-12T13:49:54.509Z,3.47
2022-08-12T13:52:26.727Z,2.92
2022-08-12T13:54:58.870Z,2.95
2022-08-12T13:57:44.511Z,4.75
2022-08-12T14:00:20.463Z,2.15
2022-08-12T14:03:02.873Z,4.35
2022-08-12T14:05:44.219Z,2.67
2022-08-12T14:08:21.176Z,6.15
2022-08-12T14:10:54.240Z,2.60
2022-08-12T14:14:03.191Z,3.33
2022-08-12T14:16:46.907Z,2.80
2022-08-12T14:19:21.907Z,4.15
2022-08-12T14:22:00.450Z,2.90
2022-08-12T14:24:40.373Z,4.05
2022-08-12T14:27:11.206Z,3.03
2022-08-12T14:30:04.847Z,3.15
2022-08-12T14:32:35.585Z,3.72
2022-08-12T14:35:09.405Z,3.85
2022-08-12T14:37:57.205Z,4.07
2022-08-12T14:40:30.411Z,3.83
2022-08-12T14:43:17.116Z,6.70
2022-08-12T14:45:49.204Z,8.35
2022-08-12T14:48:19.452Z,3.70
2022-08-12T14:52:16.221Z,3.47
2022-08-12T14:56:58.278Z,3.78
2022-08-12T14:59:58.086Z,4.80
2022-08-12T15:02:28.755Z,3.05
2022-08-12T15:05:03.576Z,5.57
2022-08-12T15:07:34.333Z,3.70
2022-08-12T15:10:31.171Z,4.88
2022-08-12T15:15:45.725Z,3.38
2022-08-12T15:18:22.811Z,4.32
2022-08-12T15:20:57.862Z,6.07
2022-08-12T15:23:32.928Z,5.10
2022-08-12T15:26:21.225Z,3.30
2022-08-12T15:28:56.313Z,5.20
2022-08-12T15:31:28.263Z,3.95
2022-08-12T15:34:13.702Z,6.78
2022-08-12T15:36:54.695Z,5.07
2022-08-12T15:39:31.949Z,4.90
2022-08-12T15:42:04.257Z,4.45
2022-08-12T15:44:37.790Z,4.65
2022-08-12T15:47:09.033Z,2.97
2022-08-12T15:49:54.385Z,9.77
2022-08-12T15:52:44.957Z,3.67
2022-08-12T15:55:21.695Z,4.68
2022-08-12T15:57:59.635Z,4.15
2022-08-12T16:00:33.529Z,4.53
2022-08-12T16:03:13.476Z,4.22
2022-08-12T16:06:15.507Z,4.43
2022-08-12T16:08:42.559Z,4.35
2022-08-12T16:11:15.656Z,5.35
2022-08-12T16:13:46.637Z,6.53
2022-08-12T16:16:23.880Z,4.85
2022-08-12T16:19:02.023Z,7.80
2022-08-12T16:21:51.428Z,8.05
2022-08-12T16:24:20.702Z,4.65
2022-08-12T16:26:51.396Z,4.10
2022-08-12T16:29:38.650Z,4.20
2022-08-12T16:32:31.282Z,4.13
2022-08-12T16:35:18.451Z,5.15
2022-08-12T16:38:24.240Z,4.13
2022-08-12T16:41:11.455Z,8.55
2022-08-12T16:43:44.094Z,7.72
2022-08-12T16:46:32.593Z,9.10
2022-08-12T16:49:13.810Z,5.35
2022-08-12T16:51:47.103Z,6.53
2022-08-12T16:54:21.412Z,6.90
2022-08-12T16:56:57.823Z,4.72
2022-08-12T16:59:30.844Z,5.00
2022-08-12T17:02:00.396Z,4.70
2022-08-12T17:04:30.324Z,5.05
2022-08-12T17:06:57.880Z,6.55
2022-08-12T17:09:39.740Z,4.93
2022-08-12T17:12:11.219Z,5.03
2022-08-12T17:14:40.615Z,5.13
2022-08-12T17:17:26.279Z,6.82
2022-08-12T17:23:27.320Z,13.25
2022-08-12T17:26:28.445Z,13.57
2022-08-12T17:29:16.508Z,14.82
2022-08-12T17:32:02.990Z,16.90
2022-08-12T17:34:55.974Z,19.65
2022-08-12T17:37:27.530Z,14.65
2022-08-12T17:40:12.500Z,10.88
2022-08-12T17:42:47.725Z,10.93
2022-08-12T17:45:20.264Z,9.48
2022-08-12T17:48:01.574Z,10.13
2022-08-12T17:50:39.742Z,16.33
2022-08-12T17:53:15.734Z,8.68
2022-08-12T17:55:49.868Z,7.85
2022-08-12T17:58:37.683Z,10.55
2022-08-12T18:01:47.368Z,9.63
2022-08-12T18:04:35.541Z,12.43
2022-08-12T18:07:10.583Z,17.73
2022-08-12T18:09:46.580Z,12.80
2022-08-12T18:12:38.751Z,16.30
2022-08-12T18:15:26.115Z,17.40
2022-08-12T18:18:20.646Z,14.68
2022-08-12T18:22:01.894Z,14.30
2022-08-12T18:24:29.889Z,14.02
2022-08-12T18:27:29.727Z,10.15
2022-08-12T18:30:40.366Z,12.30
2022-08-12T18:36:38.829Z,17.13
2022-08-12T18:42:59.786Z,18.20
2022-08-12T18:45:47.193Z,13.02
2022-08-12T18:48:34.037Z,13.13
2022-08-12T18:51:03.955Z,15.50
2022-08-12T18:54:05.004Z,19.13
2022-08-12T18:56:37.245Z,44.35
2022-08-12T18:59:10.956Z,24.25
2022-08-12T19:02:19.726Z,16.17
2022-08-12T19:04:45.211Z,16.70
2022-08-12T19:07:48.853Z,15.15
2022-08-12T19:11:21.063Z,11.90
2022-08-12T19:14:09.385Z,18.85
2022-08-12T19:16:42.193Z,33.58
2022-08-12T19:19:17.424Z,20.88
2022-08-12T19:21:56.470Z,26.95
2022-08-12T19:24:54.727Z,21.85
2022-08-12T19:27:32.405Z,22.73
2022-08-12T19:30:09.015Z,20.92
2022-08-12T19:32:47.644Z,20.20
2022-08-12T19:36:07.794Z,21.77
2022-08-12T19:38:16.437Z,27.48
2022-08-12T19:40:48.934Z,24.45
2022-08-12T19:43:21.899Z,17.48
2022-08-12T19:45:56.802Z,19.33
2022-08-12T19:48:34.629Z,19.58
2022-08-12T19:51:08.667Z,20.17
2022-08-12T19:53:58.323Z,20.95
2022-08-12T19:56:49.589Z,22.20
2022-08-12T19:59:43.033Z,26.42
2022-08-12T20:02:33.210Z,29.38
2022-08-12T20:06:05.722Z,25.35
2022-08-12T20:08:07.553Z,34.83
2022-08-12T20:10:51.130Z,20.88
2022-08-12T20:13:37.500Z,19.77
2022-08-12T20:16:50.624Z,20.10
2022-08-12T20:20:01.092Z,15.68
2022-08-12T20:22:43.553Z,21.05
2022-08-12T20:25:28.164Z,15.32
2022-08-12T20:28:21.337Z,18.50
2022-08-12T20:30:59.363Z,16.48
2022-08-12T20:33:50.200Z,15.50
2022-08-12T20:36:42.763Z,14.50
2022-08-12T20:39:17.882Z,14.32
2022-08-12T20:42:10.607Z,14.50
2022-08-12T20:44:43.654Z,15.10
2022-08-12T20:47:21.825Z,31.33
2022-08-12T20:50:11.911Z,28.20
2022-08-12T20:52:46.067Z,22.98
2022-08-12T20:55:56.652Z,15.80
2022-08-12T20:58:34.701Z,23.33
2022-08-12T21:01:29.230Z,15.43
2022-08-12T21:04:31.852Z,29.40
2022-08-12T21:07:08.662Z,15.02
2022-08-12T21:10:29.482Z,15.02
2022-08-12T21:13:20.480Z,16.92
2022-08-12T21:15:54.830Z,25.35
2022-08-12T21:18:28.776Z,18.58
2022-08-12T21:21:23.166Z,14.88
2022-08-12T21:23:56.556Z,12.68
2022-08-12T21:26:29.406Z,12.57
2022-08-12T21:29:06.732Z,14.95
2022-08-12T21:32:46.966Z,12.23
2022-08-12T21:34:26.355Z,17.50
2022-08-12T21:37:27.606Z,15.48
2022-08-12T21:39:56.418Z,16.42
2022-08-12T21:42:27.770Z,14.77
2022-08-12T21:45:46.782Z,14.80
2022-08-12T21:47:53.592Z,12.02
2022-08-12T21:50:26.727Z,12.18
2022-08-12T21:52:59.734Z,12.05
2022-08-12T21:55:39.795Z,13.05
2022-08-12T21:58:17.527Z,13.23
2022-08-12T22:00:48.569Z,13.07
2022-08-12T22:04:03.665Z,13.93
2022-08-12T22:06:42.768Z,11.15
2022-08-12T22:09:16.007Z,11.45
2022-08-12T22:14:27.452Z,13.98
2022-08-12T22:16:57.305Z,11.93
2022-08-12T22:19:25.128Z,11.07
2022-08-12T22:21:56.433Z,9.48
2022-08-12T22:24:30.129Z,13.45
2022-08-12T22:27:08.228Z,11.90
2022-08-12T22:30:09.238Z,11.88
2022-08-12T22:32:51.699Z,12.30
2022-08-12T22:35:55.977Z,10.85
2022-08-12T22:38:44.212Z,11.38
2022-08-12T22:41:38.190Z,11.45
2022-08-12T22:44:52.740Z,12.95
2022-08-12T22:47:54.122Z,15.45
2022-08-12T22:50:29.728Z,18.83
2022-08-12T22:53:15.711Z,15.75
2022-08-12T22:55:59.208Z,22.77
2022-08-12T22:58:40.645Z,15.50
2022-08-12T23:01:21.304Z,13.30
2022-08-12T23:04:27.564Z,12.20
2022-08-12T23:07:05.533Z,11.35
2022-08-12T23:09:48.416Z,15.15
2022-08-12T23:12:50.848Z,9.32
2022-08-12T23:19:23.348Z,11.02
2022-08-12T23:22:36.604Z,11.93
2022-08-12T23:25:21.273Z,10.85
2022-08-12T23:28:37.728Z,9.32
2022-08-12T23:31:13.648Z,10.27
2022-08-12T23:34:02.430Z,9.50
2022-08-12T23:36:52.637Z,9.02
2022-08-12T23:40:14.248Z,11.98
2022-08-12T23:43:07.055Z,8.95
2022-08-12T23:46:00.794Z,9.73
2022-08-12T23:48:48.016Z,7.82
2022-08-12T23:51:46.725Z,8.02
2022-08-12T23:54:38.681Z,6.70
2022-08-12T23:58:17.645Z,9.18
